createdAt,value
2019-03-21T00:00:08.206Z,6.50
2019-03-21T00:02:37.479Z,7.27
2019-03-21T00:05:07.504Z,7.07
2019-03-21T00:07:37.068Z,8.10
2019-03-21T00:10:11.052Z,7.60
2019-03-21T00:12:40.577Z,6.00
2019-03-21T00:15:14.914Z,7.17
2019-03-21T00:17:46.173Z,7.77
2019-03-21T00:20:16.441Z,7.00
2019-03-21T00:22:46.229Z,7.87
2019-03-21T00:25:16.616Z,7.80
2019-03-21T00:27:46.512Z,6.87
2019-03-21T00:30:16.712Z,6.57
2019-03-21T00:32:46.195Z,7.47
2019-03-21T00:35:16.234Z,7.17
2019-03-21T00:37:46.861Z,6.60
2019-03-21T00:40:17.987Z,7.47
2019-03-21T00:42:47.652Z,6.57
2019-03-21T00:45:17.573Z,7.70
2019-03-21T00:47:47.353Z,7.27
2019-03-21T00:50:17.615Z,7.03
2019-03-21T00:52:47.513Z,7.93
2019-03-21T00:55:17.333Z,6.40
2019-03-21T00:57:47.366Z,7.30
2019-03-21T01:00:23.995Z,6.57
2019-03-21T01:02:52.910Z,6.77
2019-03-21T01:05:22.533Z,7.30
2019-03-21T01:07:51.868Z,7.80
2019-03-21T01:10:21.474Z,7.47
2019-03-21T01:12:50.995Z,8.37
2019-03-21T01:15:20.422Z,8.13
2019-03-21T01:17:49.984Z,7.60
2019-03-21T01:20:19.509Z,7.23
2019-03-21T01:22:48.945Z,7.17
2019-03-21T01:25:20.081Z,6.80
2019-03-21T01:27:49.452Z,8.00
2019-03-21T01:30:18.777Z,7.80
2019-03-21T01:32:47.958Z,9.43
2019-03-21T01:35:17.437Z,7.53
2019-03-21T01:37:46.980Z,8.00
2019-03-21T01:40:17.818Z,7.20
2019-03-21T01:42:47.583Z,5.73
2019-03-21T01:45:18.319Z,6.73
2019-03-21T01:47:48.729Z,7.23
2019-03-21T01:50:18.603Z,6.00
2019-03-21T01:52:47.820Z,7.37
2019-03-21T01:55:17.333Z,6.87
2019-03-21T01:57:47.123Z,8.43
2019-03-21T02:00:18.121Z,6.87
2019-03-21T02:02:47.989Z,6.97
2019-03-21T02:05:17.166Z,7.97
2019-03-21T02:07:46.912Z,6.60
2019-03-21T02:10:16.462Z,7.13
2019-03-21T02:12:45.747Z,6.47
2019-03-21T02:15:15.222Z,6.20
2019-03-21T02:17:44.690Z,6.13
2019-03-21T02:20:14.264Z,6.90
2019-03-21T02:22:43.609Z,5.93
2019-03-21T02:25:14.316Z,6.50
2019-03-21T02:27:43.948Z,5.70
2019-03-21T02:30:14.976Z,6.70
2019-03-21T02:32:44.195Z,6.70
2019-03-21T02:35:13.495Z,7.00
2019-03-21T02:37:43.374Z,6.70
2019-03-21T02:40:13.924Z,5.40
2019-03-21T02:42:43.264Z,7.67
2019-03-21T02:45:13.620Z,6.60
2019-03-21T02:47:42.945Z,7.30
2019-03-21T02:50:14.605Z,6.10
2019-03-21T02:52:44.024Z,6.47
2019-03-21T02:55:13.841Z,7.97
2019-03-21T02:57:43.502Z,7.80
2019-03-21T03:00:14.564Z,6.37
2019-03-21T03:02:44.075Z,7.40
2019-03-21T03:05:15.832Z,6.90
2019-03-21T03:07:45.274Z,7.20
2019-03-21T03:10:15.894Z,6.73
2019-03-21T03:12:45.328Z,6.97
2019-03-21T03:15:22.574Z,7.87
2019-03-21T03:17:46.417Z,7.57
2019-03-21T03:20:16.372Z,6.27
2019-03-21T03:22:45.550Z,8.80
2019-03-21T03:25:15.275Z,6.80
2019-03-21T03:27:45.404Z,7.80
2019-03-21T03:30:16.005Z,7.00
2019-03-21T03:32:45.185Z,10.53
2019-03-21T03:35:15.110Z,7.87
2019-03-21T03:37:44.553Z,7.90
2019-03-21T03:40:15.644Z,6.90
2019-03-21T03:42:45.913Z,8.57
2019-03-21T03:45:17.046Z,8.43
2019-03-21T03:47:46.280Z,8.43
2019-03-21T03:50:16.008Z,8.47
2019-03-21T03:52:45.471Z,7.10
2019-03-21T03:55:15.024Z,7.63
2019-03-21T03:57:44.737Z,8.00
2019-03-21T04:00:15.428Z,7.50
2019-03-21T04:02:46.287Z,10.63
2019-03-21T04:05:17.908Z,7.40
2019-03-21T04:07:47.630Z,7.57
2019-03-21T04:10:21.115Z,7.90
2019-03-21T04:12:50.332Z,7.03
2019-03-21T04:15:19.813Z,19.27
2019-03-21T04:17:49.114Z,8.50
2019-03-21T04:20:18.986Z,8.10
2019-03-21T04:22:49.565Z,14.03
2019-03-21T04:25:20.674Z,9.27
2019-03-21T04:27:49.982Z,8.40
2019-03-21T04:30:28.395Z,8.20
2019-03-21T04:32:57.962Z,7.13
2019-03-21T04:35:27.554Z,7.17
2019-03-21T04:37:57.582Z,7.13
2019-03-21T04:40:27.516Z,8.80
2019-03-21T04:42:57.137Z,7.40
2019-03-21T04:45:26.751Z,7.77
2019-03-21T04:47:56.473Z,6.60
2019-03-21T04:50:26.605Z,8.33
2019-03-21T04:52:56.107Z,7.63
2019-03-21T04:55:25.981Z,7.33
2019-03-21T04:57:55.362Z,7.27
2019-03-21T05:00:26.570Z,8.67
2019-03-21T05:02:57.553Z,7.07
2019-03-21T05:05:27.162Z,7.83
2019-03-21T05:07:56.452Z,7.23
2019-03-21T05:10:26.050Z,7.63
2019-03-21T05:12:56.817Z,6.83
2019-03-21T05:15:27.855Z,7.00
2019-03-21T05:18:02.097Z,7.23
2019-03-21T05:20:31.589Z,7.37
2019-03-21T05:23:01.683Z,8.00
2019-03-21T05:25:31.234Z,7.77
2019-03-21T05:28:00.654Z,9.27
2019-03-21T05:30:34.822Z,7.97
2019-03-21T05:33:04.846Z,7.97
2019-03-21T05:35:34.427Z,8.43
2019-03-21T05:38:03.748Z,8.57
2019-03-21T05:40:33.853Z,8.93
2019-03-21T05:43:05.118Z,8.57
2019-03-21T05:45:35.012Z,6.97
2019-03-21T05:48:05.226Z,6.77
2019-03-21T05:50:34.817Z,7.30
2019-03-21T05:53:04.491Z,7.37
2019-03-21T05:55:33.877Z,6.87
2019-03-21T05:58:03.710Z,8.30
2019-03-21T06:00:36.634Z,8.80
2019-03-21T06:03:08.146Z,8.17
2019-03-21T06:05:38.451Z,6.33
2019-03-21T06:08:10.728Z,7.27
2019-03-21T06:10:41.283Z,8.47
2019-03-21T09:56:01.268Z,2.80
2019-03-21T09:58:31.347Z,4.37
2019-03-21T10:01:00.665Z,4.27
2019-03-21T10:03:30.934Z,4.47
2019-03-21T10:06:01.350Z,4.80
2019-03-21T10:08:31.126Z,4.13
2019-03-21T10:11:00.556Z,4.20
2019-03-21T10:13:30.672Z,4.37
2019-03-21T10:16:00.741Z,4.90
2019-03-21T10:18:30.070Z,5.40
2019-03-21T10:21:00.287Z,4.90
2019-03-21T10:23:30.644Z,5.20
2019-03-21T10:26:00.170Z,6.33
2019-03-21T10:28:30.734Z,4.40
2019-03-21T10:31:01.242Z,5.63
2019-03-21T10:33:31.086Z,4.80
2019-03-21T10:36:01.372Z,5.47
2019-03-21T10:38:31.576Z,5.03
2019-03-21T10:41:01.383Z,3.30
2019-03-21T10:43:31.404Z,5.60
2019-03-21T10:46:00.891Z,4.83
2019-03-21T10:48:31.366Z,6.27
2019-03-21T10:51:01.354Z,5.33
2019-03-21T10:53:31.728Z,5.00
2019-03-21T10:56:03.408Z,5.97
2019-03-21T10:58:34.231Z,5.20
2019-03-21T11:01:04.167Z,6.20
2019-03-21T11:03:34.234Z,4.33
2019-03-21T11:06:08.141Z,4.63
2019-03-21T11:08:38.943Z,3.90
2019-03-21T11:11:09.679Z,4.60
2019-03-21T11:13:39.716Z,5.57
2019-03-21T11:16:09.693Z,5.20
2019-03-21T11:18:41.450Z,5.00
2019-03-21T11:21:11.421Z,4.50
2019-03-21T11:23:41.419Z,4.80
2019-03-21T11:26:12.065Z,5.33
2019-03-21T11:28:42.430Z,5.77
2019-03-21T11:31:13.040Z,4.23
2019-03-21T11:33:47.513Z,4.50
2019-03-21T11:36:18.069Z,5.00
2019-03-21T11:38:50.404Z,3.30
2019-03-21T11:41:20.148Z,5.13
2019-03-21T11:43:54.525Z,5.00
2019-03-21T11:46:24.990Z,4.40
2019-03-21T11:48:56.325Z,6.83
2019-03-21T11:51:26.948Z,5.37
2019-03-21T11:53:58.075Z,5.53
2019-03-21T11:56:30.286Z,4.87
2019-03-21T11:59:02.454Z,4.60
2019-03-21T12:01:34.608Z,5.13
2019-03-21T12:04:14.155Z,4.73
2019-03-21T12:06:44.210Z,6.50
2019-03-21T12:09:18.392Z,6.83
2019-03-21T12:11:51.586Z,6.37
2019-03-21T12:14:23.112Z,6.80
2019-03-21T12:16:54.285Z,6.37
2019-03-21T12:19:39.526Z,5.13
2019-03-21T12:22:30.228Z,4.60
2019-03-21T12:25:02.412Z,5.20
2019-03-21T12:27:35.426Z,5.30
2019-03-21T12:30:07.462Z,4.70
2019-03-21T12:32:39.001Z,4.40
2019-03-21T12:35:10.943Z,6.10
2019-03-21T12:37:41.344Z,6.60
2019-03-21T12:40:12.000Z,5.40
2019-03-21T12:42:42.478Z,5.40
2019-03-21T12:45:13.905Z,5.63
2019-03-21T12:47:43.395Z,6.10
2019-03-21T12:50:14.379Z,5.70
2019-03-21T12:52:44.145Z,5.50
2019-03-21T12:55:15.423Z,6.33
2019-03-21T12:57:46.770Z,4.90
2019-03-21T13:00:18.188Z,7.07
2019-03-21T13:02:51.447Z,6.43
2019-03-21T13:05:28.207Z,6.60
2019-03-21T13:07:58.169Z,5.60
2019-03-21T13:10:27.698Z,6.33
2019-03-21T13:12:57.582Z,5.80
2019-03-21T13:15:35.820Z,6.33
2019-03-21T13:18:07.478Z,5.93
2019-03-21T13:20:40.060Z,6.67
2019-03-21T13:23:10.583Z,4.47
2019-03-21T13:25:40.378Z,4.40
2019-03-21T13:28:11.024Z,5.60
2019-03-21T13:30:41.511Z,4.23
2019-03-21T13:33:12.913Z,5.37
2019-03-21T13:35:43.890Z,6.10
2019-03-21T13:38:14.132Z,5.70
2019-03-21T13:40:43.493Z,5.20
2019-03-21T13:43:13.351Z,6.30
2019-03-21T13:45:45.004Z,5.30
2019-03-21T13:48:19.586Z,5.80
2019-03-21T13:50:49.934Z,5.37
2019-03-21T13:53:19.770Z,5.80
2019-03-21T13:55:51.849Z,4.60
2019-03-21T13:58:25.923Z,5.93
2019-03-21T14:00:56.279Z,6.60
2019-03-21T14:03:45.931Z,5.30
2019-03-21T14:06:17.167Z,5.13
2019-03-21T14:08:48.000Z,4.87
2019-03-21T14:11:19.316Z,5.00
2019-03-21T14:13:51.850Z,5.60
2019-03-21T14:16:24.073Z,6.83
2019-03-21T14:18:54.231Z,5.07
2019-03-21T14:21:24.717Z,6.93
2019-03-21T14:23:54.903Z,6.47
2019-03-21T14:26:26.988Z,5.30
2019-03-21T14:29:11.878Z,7.67
2019-03-21T14:31:32.556Z,6.33
2019-03-21T14:34:06.971Z,6.67
2019-03-21T14:36:36.643Z,6.27
2019-03-21T14:39:08.498Z,6.97
2019-03-21T14:41:40.093Z,6.60
2019-03-21T14:47:02.497Z,6.60
2019-03-21T14:49:33.273Z,5.67
2019-03-21T14:52:03.139Z,6.50
2019-03-21T14:54:34.201Z,5.37
2019-03-21T14:57:04.121Z,6.27
2019-03-21T14:59:38.555Z,5.70
2019-03-21T15:02:09.356Z,6.80
2019-03-21T15:04:39.652Z,5.40
2019-03-21T15:07:10.358Z,6.77
2019-03-21T15:09:42.038Z,6.13
2019-03-21T15:12:20.026Z,5.73
2019-03-21T15:14:50.519Z,5.40
2019-03-21T15:17:25.955Z,6.00
2019-03-21T15:20:00.174Z,7.23
2019-03-21T15:22:34.282Z,5.70
2019-03-21T15:25:09.064Z,5.97
2019-03-21T15:27:41.033Z,6.90
2019-03-21T15:30:13.808Z,5.67
2019-03-21T15:32:43.999Z,5.73
2019-03-21T15:35:15.914Z,6.20
2019-03-21T15:37:47.203Z,6.13
2019-03-21T15:40:18.575Z,5.10
2019-03-21T15:42:49.478Z,6.10
2019-03-21T15:45:23.774Z,6.90
2019-03-21T15:47:52.720Z,5.30
2019-03-21T15:50:32.356Z,5.80
2019-03-21T15:53:02.681Z,5.90
2019-03-21T16:48:42.231Z,5.87
2019-03-21T16:51:12.357Z,7.23
2019-03-21T16:53:43.903Z,6.00
2019-03-21T16:56:14.739Z,6.20
2019-03-21T16:58:45.339Z,6.67
2019-03-21T17:01:16.703Z,7.00
2019-03-21T17:03:46.821Z,5.77
2019-03-21T17:06:16.024Z,6.00
2019-03-21T17:08:46.475Z,6.43
2019-03-21T17:11:16.031Z,5.67
2019-03-21T17:13:46.182Z,5.57
2019-03-21T17:16:15.576Z,6.37
2019-03-21T17:18:45.267Z,6.33
2019-03-21T17:21:15.674Z,6.80
2019-03-21T17:23:45.853Z,6.70
2019-03-21T17:26:17.892Z,5.97
2019-03-21T17:28:48.049Z,6.07
2019-03-21T17:31:19.423Z,6.67
2019-03-21T17:33:49.209Z,6.90
2019-03-21T17:36:20.728Z,7.60
2019-03-21T17:38:51.028Z,7.80
2019-03-21T17:41:20.813Z,6.00
2019-03-21T17:43:53.726Z,7.00
2019-03-21T17:46:31.579Z,7.33
2019-03-21T17:49:01.889Z,7.47
2019-03-21T17:51:31.983Z,6.40
2019-03-21T17:54:03.201Z,7.43
2019-03-21T17:56:32.906Z,6.63
2019-03-21T17:59:03.146Z,8.90
2019-03-21T18:01:33.109Z,7.37
2019-03-21T18:04:03.597Z,7.60
2019-03-21T18:06:33.230Z,7.00
2019-03-21T18:09:03.147Z,7.53
2019-03-21T18:11:33.280Z,7.70
2019-03-21T18:14:03.430Z,7.80
2019-03-21T18:16:33.674Z,7.60
2019-03-21T18:19:03.701Z,7.93
2019-03-21T18:21:34.582Z,8.57
2019-03-21T18:24:04.411Z,7.50
2019-03-21T18:26:34.538Z,8.10
2019-03-21T18:29:05.456Z,8.10
2019-03-21T18:31:34.912Z,8.20
2019-03-21T18:34:05.278Z,8.90
2019-03-21T18:36:35.201Z,8.17
2019-03-21T18:39:06.379Z,8.73
2019-03-21T18:41:35.847Z,8.53
2019-03-21T18:44:05.610Z,9.97
2019-03-21T18:46:35.016Z,10.27
2019-03-21T18:49:05.383Z,8.17
2019-03-21T18:51:35.599Z,7.73
2019-03-21T18:54:05.457Z,8.23
2019-03-21T18:56:35.303Z,8.60
2019-03-21T18:59:06.034Z,7.80
2019-03-21T19:01:35.651Z,8.53
2019-03-21T19:04:05.356Z,7.80
2019-03-21T19:06:35.170Z,8.87
2019-03-21T19:09:07.040Z,9.10
2019-03-21T19:11:36.708Z,9.07
2019-03-21T19:14:06.758Z,8.17
2019-03-21T19:16:37.066Z,7.70
2019-03-21T19:19:08.620Z,8.33
2019-03-21T19:21:38.282Z,8.57
2019-03-21T19:24:08.308Z,7.57
2019-03-21T19:26:37.909Z,7.80
2019-03-21T19:29:08.036Z,8.00
2019-03-21T19:31:37.978Z,8.33
2019-03-21T19:34:07.694Z,8.97
2019-03-21T19:36:37.523Z,8.37
2019-03-21T19:39:08.444Z,7.83
2019-03-21T19:41:38.199Z,8.30
2019-03-21T19:44:08.069Z,8.23
2019-03-21T19:46:39.054Z,8.03
2019-03-21T19:49:08.764Z,7.57
2019-03-21T19:51:38.847Z,8.00
2019-03-21T19:54:08.258Z,6.60
2019-03-21T19:56:37.538Z,7.67
2019-03-21T19:59:06.832Z,8.57
2019-03-21T20:01:36.642Z,7.50
2019-03-21T20:04:06.679Z,6.80
2019-03-21T20:06:36.761Z,6.97
2019-03-21T20:09:07.552Z,8.80
2019-03-21T20:11:37.863Z,8.27
2019-03-21T20:14:08.406Z,8.20
2019-03-21T20:16:37.673Z,8.70
2019-03-21T20:19:09.101Z,8.10
2019-03-21T20:21:47.834Z,8.00
2019-03-21T20:24:10.965Z,8.80
2019-03-21T20:26:40.943Z,7.77
2019-03-21T20:29:10.452Z,7.53
2019-03-21T20:31:40.784Z,7.60
2019-03-21T20:34:12.878Z,6.83
2019-03-21T20:36:43.044Z,8.73
2019-03-21T20:39:13.009Z,9.13
2019-03-21T20:41:42.518Z,8.70
2019-03-21T20:44:15.469Z,8.90
2019-03-21T20:46:44.517Z,9.97
2019-03-21T20:49:14.416Z,7.23
2019-03-21T20:51:43.938Z,6.70
2019-03-21T20:54:13.650Z,7.93
2019-03-21T20:56:56.722Z,7.77
2019-03-21T20:59:26.272Z,7.50
2019-03-21T21:02:02.616Z,6.90
2019-03-21T21:04:28.097Z,10.53
2019-03-21T21:06:57.982Z,8.23
2019-03-21T21:09:28.234Z,7.67
2019-03-21T21:12:01.354Z,7.63
2019-03-21T21:14:33.031Z,7.77
2019-03-21T21:17:03.001Z,8.10
2019-03-21T21:19:32.473Z,7.57
2019-03-21T21:22:02.318Z,7.10
2019-03-21T21:24:36.695Z,7.80
2019-03-21T21:27:06.505Z,7.80
2019-03-21T21:29:36.114Z,7.80
2019-03-21T21:32:05.815Z,8.33
2019-03-21T21:34:35.604Z,7.37
2019-03-21T21:37:05.287Z,8.10
2019-03-21T21:39:34.922Z,8.53
2019-03-21T21:42:04.499Z,6.90
2019-03-21T21:44:37.367Z,7.90
2019-03-21T21:47:06.958Z,7.37
2019-03-21T21:49:36.818Z,8.33
2019-03-21T21:52:07.339Z,8.73
2019-03-21T21:54:36.969Z,9.07
2019-03-21T21:57:06.850Z,9.20
2019-03-21T21:59:37.343Z,8.83
2019-03-21T22:02:07.327Z,8.87
2019-03-21T22:04:36.961Z,8.43
2019-03-21T22:07:06.514Z,9.77
2019-03-21T22:09:36.124Z,9.37
2019-03-21T22:12:05.665Z,7.97
2019-03-21T22:14:35.325Z,8.07
2019-03-21T22:17:04.600Z,8.50
2019-03-21T22:19:34.312Z,8.27
2019-03-21T22:22:04.390Z,9.00
2019-03-21T22:24:34.335Z,8.80
2019-03-21T22:27:04.051Z,8.97
2019-03-21T22:29:33.360Z,7.47
2019-03-21T22:32:02.938Z,7.43
2019-03-21T22:34:33.110Z,8.50
2019-03-21T22:37:02.410Z,7.80
2019-03-21T22:39:32.733Z,8.73
2019-03-21T22:42:02.878Z,8.60
2019-03-21T22:44:32.384Z,7.87
2019-03-21T22:47:01.835Z,7.73
2019-03-21T22:49:31.457Z,8.57
2019-03-21T22:52:01.061Z,9.10
2019-03-21T22:54:30.278Z,9.20
2019-03-21T22:56:59.786Z,8.50
2019-03-21T22:59:29.603Z,6.93
2019-03-21T23:01:59.213Z,8.93
2019-03-21T23:04:29.605Z,8.80
2019-03-21T23:06:58.919Z,9.07
2019-03-21T23:09:29.145Z,9.87
2019-03-21T23:12:00.477Z,9.03
2019-03-21T23:14:30.420Z,8.80
2019-03-21T23:16:59.736Z,8.47
2019-03-21T23:19:29.334Z,7.20
2019-03-21T23:21:59.332Z,7.73
2019-03-21T23:24:28.937Z,7.27
